createdAt,value
2023-02-18T00:02:06.491Z,42.20
2023-02-18T00:05:08.241Z,53.60
2023-02-18T00:08:09.811Z,76.50
2023-02-18T00:11:11.992Z,71.10
2023-02-18T00:14:15.212Z,63.10
2023-02-18T00:17:16.725Z,71.10
2023-02-18T00:20:18.445Z,83.70
2023-02-18T00:23:19.948Z,80.00
2023-02-18T00:26:21.516Z,75.20
2023-02-18T00:29:23.178Z,67.90
2023-02-18T00:32:24.762Z,66.20
2023-02-18T00:35:26.370Z,76.50
2023-02-18T00:38:27.962Z,68.50
2023-02-18T00:41:29.946Z,71.50
2023-02-18T00:44:32.046Z,63.50
2023-02-18T00:47:33.589Z,70.20
2023-02-18T00:50:35.614Z,67.50
2023-02-18T00:53:37.405Z,61.40
2023-02-18T00:56:55.322Z,47.60
2023-02-18T00:59:56.874Z,43.30
2023-02-18T01:02:58.409Z,46.40
2023-02-18T01:06:00.740Z,51.00
2023-02-18T01:09:02.280Z,39.60
2023-02-18T01:12:04.924Z,42.70
2023-02-18T01:15:08.445Z,38.90
2023-02-18T01:18:10.571Z,39.70
2023-02-18T01:21:12.305Z,36.50
2023-02-18T01:24:13.872Z,37.00
2023-02-18T01:27:17.364Z,53.30
2023-02-18T01:30:20.860Z,51.20
2023-02-18T01:33:22.872Z,56.80
2023-02-18T01:36:24.447Z,58.70
2023-02-18T01:39:29.573Z,61.20
2023-02-18T01:42:31.187Z,65.00
2023-02-18T01:45:37.225Z,64.50
2023-02-18T01:48:42.658Z,69.80
2023-02-18T01:51:49.157Z,61.40
2023-02-18T01:54:55.491Z,70.00
2023-02-18T01:57:57.141Z,66.30
2023-02-18T02:00:58.767Z,63.90
2023-02-18T02:04:00.521Z,63.80
2023-02-18T02:07:02.250Z,62.50
2023-02-18T02:10:04.508Z,68.30
2023-02-18T02:13:27.412Z,79.50
2023-02-18T02:17:03.818Z,70.00
2023-02-18T02:20:24.043Z,66.20
2023-02-18T02:24:02.788Z,55.70
2023-02-18T02:27:57.293Z,55.20
2023-02-18T02:31:08.497Z,51.30
2023-02-18T02:34:43.290Z,48.10
2023-02-18T02:38:08.106Z,61.90
2023-02-18T02:41:28.319Z,48.70
2023-02-18T02:44:48.608Z,50.20
2023-02-18T02:48:05.409Z,43.90
2023-02-18T02:51:35.903Z,44.50
2023-02-18T02:54:37.680Z,44.60
2023-02-18T02:57:50.087Z,46.50
2023-02-18T03:01:14.227Z,45.70
2023-02-18T03:04:24.964Z,75.30
2023-02-18T03:07:54.775Z,65.60
2023-02-18T03:11:09.495Z,57.10
2023-02-18T03:14:17.448Z,62.30
2023-02-18T03:17:27.629Z,54.00
2023-02-18T03:20:35.836Z,54.00
2023-02-18T03:23:53.091Z,65.90
2023-02-18T03:26:59.911Z,69.50
2023-02-18T03:30:07.279Z,67.80
2023-02-18T03:33:11.812Z,59.90
2023-02-18T03:36:13.616Z,60.80
2023-02-18T03:39:17.371Z,61.80
2023-02-18T03:42:19.456Z,59.90
2023-02-18T03:45:21.108Z,73.20
2023-02-18T03:48:23.040Z,78.50
2023-02-18T03:51:27.009Z,69.70
2023-02-18T03:54:28.688Z,75.20
2023-02-18T03:57:30.415Z,80.10
2023-02-18T04:00:32.060Z,74.80
2023-02-18T04:03:33.672Z,66.70
2023-02-18T04:06:35.384Z,54.20
2023-02-18T04:09:36.999Z,65.10
2023-02-18T04:12:38.515Z,75.20
2023-02-18T04:15:40.130Z,83.90
2023-02-18T04:18:41.677Z,72.10
2023-02-18T04:21:43.382Z,78.50
2023-02-18T04:24:44.917Z,81.10
2023-02-18T04:27:46.564Z,75.60
2023-02-18T04:30:48.627Z,77.60
2023-02-18T04:33:50.240Z,71.50
2023-02-18T04:36:51.863Z,71.10
2023-02-18T04:39:53.428Z,71.70
2023-02-18T04:42:54.985Z,77.30
2023-02-18T04:45:56.613Z,80.30
2023-02-18T04:48:58.195Z,80.80
2023-02-18T04:51:59.882Z,78.30
2023-02-18T04:55:01.414Z,80.20
2023-02-18T04:58:03.021Z,78.10
2023-02-18T05:01:05.137Z,79.20
2023-02-18T05:04:06.780Z,72.20
2023-02-18T05:07:08.332Z,63.40
2023-02-18T05:10:12.009Z,61.70
2023-02-18T05:13:13.565Z,59.10
2023-02-18T05:16:15.233Z,61.60
2023-02-18T05:19:17.195Z,55.90
2023-02-18T05:22:18.812Z,63.00
2023-02-18T05:25:20.389Z,70.80
2023-02-18T05:28:21.949Z,73.20
2023-02-18T05:31:23.951Z,65.60
2023-02-18T05:34:25.679Z,65.00
2023-02-18T05:37:27.290Z,64.00
2023-02-18T05:40:28.790Z,70.80
2023-02-18T05:43:30.568Z,59.40
2023-02-18T05:46:32.227Z,61.50
2023-02-18T05:49:35.695Z,65.60
2023-02-18T05:52:37.551Z,66.40
2023-02-18T05:55:39.401Z,66.90
2023-02-18T05:58:41.001Z,62.10
2023-02-18T06:01:42.619Z,62.30
2023-02-18T06:04:44.156Z,64.20
2023-02-18T06:07:45.717Z,52.40
2023-02-18T06:10:47.344Z,57.60
2023-02-18T06:13:48.915Z,59.90
2023-02-18T06:16:50.581Z,57.80
2023-02-18T06:19:52.201Z,57.20
2023-02-18T06:22:53.797Z,56.80
2023-02-18T06:25:55.431Z,58.00
2023-02-18T06:28:57.059Z,58.90
2023-02-18T06:31:59.412Z,63.60
2023-02-18T06:35:01.131Z,53.90
2023-02-18T06:38:02.758Z,57.30
2023-02-18T06:41:04.708Z,63.30
2023-02-18T06:44:06.325Z,61.20
2023-02-18T06:47:07.885Z,61.30
2023-02-18T06:50:09.795Z,62.30
2023-02-18T06:53:12.073Z,59.90
2023-02-18T06:56:13.620Z,61.40
2023-02-18T06:59:15.196Z,65.60
2023-02-18T07:02:17.174Z,63.50
2023-02-18T07:05:18.858Z,64.80
2023-02-18T07:08:20.594Z,67.60
2023-02-18T07:11:22.140Z,63.00
2023-02-18T07:14:24.818Z,65.90
2023-02-18T07:17:26.455Z,68.60
2023-02-18T07:20:28.738Z,65.80
2023-02-18T07:23:30.392Z,69.20
2023-02-18T07:26:32.104Z,67.20
2023-02-18T07:29:33.604Z,67.90
2023-02-18T07:32:35.326Z,65.70
2023-02-18T07:35:36.976Z,68.70
2023-02-18T07:38:38.615Z,65.70
2023-02-18T07:41:40.201Z,67.20
2023-02-18T07:44:48.419Z,72.20
2023-02-18T07:47:49.940Z,70.40
2023-02-18T07:50:51.513Z,73.30
2023-02-18T07:53:53.081Z,74.50
2023-02-18T07:56:57.657Z,71.10
2023-02-18T08:03:00.589Z,70.20
2023-02-18T08:06:03.080Z,77.00
2023-02-18T08:09:05.091Z,72.20
2023-02-18T08:12:07.009Z,71.80
2023-02-18T08:15:09.078Z,66.20
2023-02-18T08:18:18.252Z,67.50
2023-02-18T08:21:21.344Z,71.20
2023-02-18T08:24:22.920Z,67.10
2023-02-18T08:27:24.772Z,64.80
2023-02-18T08:30:27.221Z,72.70
2023-02-18T08:33:29.400Z,69.90
2023-02-18T08:36:31.079Z,73.50
2023-02-18T08:39:39.542Z,71.30
2023-02-18T08:42:41.516Z,66.80
2023-02-18T08:45:44.061Z,73.50
2023-02-18T08:48:45.725Z,72.40
2023-02-18T08:51:48.179Z,76.50
2023-02-18T08:54:49.917Z,81.80
2023-02-18T08:57:51.506Z,72.60
2023-02-18T09:00:53.089Z,81.60
2023-02-18T09:03:54.769Z,72.90
2023-02-18T09:06:56.494Z,77.40
2023-02-18T09:09:58.013Z,79.60
2023-02-18T09:12:59.533Z,79.80
2023-02-18T09:16:04.405Z,69.70
2023-02-18T09:19:06.422Z,77.50
2023-02-18T09:22:07.953Z,74.30
2023-02-18T09:25:09.954Z,78.80
2023-02-18T09:28:11.470Z,75.90
2023-02-18T09:31:16.558Z,78.20
2023-02-18T09:34:18.380Z,75.20
2023-02-18T09:37:20.117Z,75.60
2023-02-18T09:40:27.882Z,76.10
2023-02-18T09:43:33.785Z,74.20
2023-02-18T09:46:48.884Z,79.20
2023-02-18T09:50:20.115Z,78.10
2023-02-18T09:53:23.040Z,80.00
2023-02-18T09:56:30.970Z,79.50
2023-02-18T09:59:32.726Z,76.40
2023-02-18T10:02:34.532Z,77.80
2023-02-18T10:05:37.073Z,84.10
2023-02-18T10:08:43.765Z,80.50
2023-02-18T10:11:49.598Z,79.90
2023-02-18T10:14:53.398Z,80.90
2023-02-18T10:17:57.416Z,84.50
2023-02-18T10:21:32.997Z,87.30
2023-02-18T10:24:43.741Z,88.20
2023-02-18T10:31:01.749Z,85.90
2023-02-18T10:34:22.094Z,83.10
2023-02-18T10:37:27.948Z,87.90
2023-02-18T10:40:32.892Z,91.90
2023-02-18T10:43:53.142Z,87.00
2023-02-18T10:47:03.910Z,87.80
2023-02-18T10:53:31.156Z,95.70
2023-02-18T10:56:35.250Z,92.00
2023-02-18T10:59:36.908Z,90.00
2023-02-18T11:02:39.570Z,95.10
2023-02-18T11:05:41.278Z,96.60
2023-02-18T11:08:44.128Z,93.40
2023-02-18T11:11:50.711Z,95.30
2023-02-18T11:15:14.051Z,95.60
2023-02-18T11:18:37.651Z,101.80
2023-02-18T11:21:39.255Z,104.60
2023-02-18T11:24:41.635Z,100.90
2023-02-18T11:27:50.433Z,94.70
2023-02-18T11:30:56.953Z,80.80
2023-02-18T11:34:01.243Z,102.40
2023-02-18T11:37:29.158Z,102.30
2023-02-18T11:40:36.274Z,102.30
2023-02-18T11:43:42.108Z,102.40
2023-02-18T11:47:17.734Z,107.40
2023-02-18T11:50:22.620Z,106.30
2023-02-18T11:53:30.704Z,113.90
2023-02-18T11:56:34.673Z,114.30
2023-02-18T11:59:39.547Z,116.20
2023-02-18T12:02:41.321Z,120.90
2023-02-18T12:05:44.493Z,102.00
2023-02-18T12:08:50.240Z,112.80
2023-02-18T12:11:58.612Z,107.90
2023-02-18T12:15:01.402Z,106.10
2023-02-18T12:18:46.815Z,113.30
2023-02-18T12:22:12.744Z,118.50
2023-02-18T12:25:49.602Z,105.30
2023-02-18T12:28:56.921Z,85.70
2023-02-18T12:32:24.350Z,89.30
2023-02-18T12:35:45.420Z,113.50
2023-02-18T12:39:11.584Z,107.90
2023-02-18T12:42:28.700Z,104.60
2023-02-18T12:46:05.665Z,102.10
2023-02-18T12:49:21.379Z,76.60
2023-02-18T12:52:31.908Z,102.00
2023-02-18T12:56:11.404Z,100.20
2023-02-18T12:59:31.400Z,101.60
2023-02-18T13:03:00.629Z,100.70
2023-02-18T13:06:22.906Z,89.50
2023-02-18T13:09:30.588Z,92.90
2023-02-18T13:12:39.519Z,96.80
2023-02-18T13:15:48.539Z,89.80
2023-02-18T13:19:11.267Z,72.50
2023-02-18T13:22:15.680Z,98.00
2023-02-18T13:25:19.140Z,95.70
2023-02-18T13:28:29.903Z,101.10
2023-02-18T13:31:50.519Z,106.80
2023-02-18T13:34:59.234Z,90.20
2023-02-18T13:38:20.716Z,101.10
2023-02-18T13:41:22.723Z,100.50
2023-02-18T13:44:24.320Z,92.30
2023-02-18T13:47:41.162Z,92.70
2023-02-18T13:50:43.500Z,113.60
2023-02-18T13:53:51.631Z,97.20
2023-02-18T13:57:20.993Z,96.70
2023-02-18T14:00:25.613Z,96.80
2023-02-18T14:03:42.490Z,93.10
2023-02-18T14:07:23.697Z,108.80
2023-02-18T14:10:34.131Z,107.60
2023-02-18T14:13:49.659Z,96.90
2023-02-18T14:17:20.382Z,87.20
2023-02-18T14:20:21.998Z,101.90
2023-02-18T14:23:23.516Z,83.70
2023-02-18T14:26:32.665Z,89.40
2023-02-18T14:29:34.301Z,97.30
2023-02-18T14:32:39.767Z,93.50
2023-02-18T14:35:53.198Z,93.10
2023-02-18T14:39:09.959Z,85.60
2023-02-18T14:42:20.293Z,80.10
2023-02-18T14:45:32.731Z,82.00
2023-02-18T14:48:46.320Z,85.10
2023-02-18T14:51:48.285Z,82.10
2023-02-18T14:54:49.873Z,82.40
2023-02-18T14:57:55.249Z,91.20
2023-02-18T15:00:56.894Z,94.00
2023-02-18T15:03:58.493Z,96.20
2023-02-18T15:07:05.281Z,97.00
2023-02-18T15:10:13.883Z,96.80
2023-02-18T15:13:27.649Z,94.80
2023-02-18T15:16:29.177Z,89.00
2023-02-18T15:19:37.855Z,85.00
2023-02-18T15:22:40.022Z,91.00
2023-02-18T15:25:42.991Z,81.70
2023-02-18T15:28:58.577Z,90.60
2023-02-18T15:32:03.247Z,91.30
2023-02-18T15:35:16.732Z,89.40
2023-02-18T15:38:20.026Z,83.60
2023-02-18T15:41:23.102Z,87.70
2023-02-18T15:44:27.490Z,88.00
2023-02-18T15:47:29.373Z,91.70
2023-02-18T15:50:36.804Z,91.20
2023-02-18T15:53:40.016Z,91.10
2023-02-18T15:56:44.237Z,85.20
2023-02-18T15:59:53.800Z,84.80
2023-02-18T16:03:03.203Z,91.40
2023-02-18T16:06:25.908Z,93.30
2023-02-18T16:09:30.754Z,88.00
2023-02-18T16:12:32.773Z,88.90
2023-02-18T16:15:39.952Z,86.10
2023-02-18T16:18:42.809Z,91.70
2023-02-18T16:21:45.157Z,89.60
2023-02-18T16:24:51.857Z,91.80
2023-02-18T16:28:04.033Z,93.40
2023-02-18T16:31:05.599Z,95.40
2023-02-18T16:34:07.175Z,94.60
2023-02-18T16:37:28.354Z,92.00
2023-02-18T16:40:40.694Z,91.20
2023-02-18T16:43:42.944Z,90.40
2023-02-18T16:46:44.791Z,97.40
2023-02-18T16:49:48.393Z,94.50
2023-02-18T16:52:50.329Z,94.50
2023-02-18T16:55:51.974Z,92.50
2023-02-18T16:59:12.237Z,92.50
2023-02-18T17:02:20.783Z,91.90
2023-02-18T17:05:26.969Z,89.30
2023-02-18T17:08:28.770Z,89.60
2023-02-18T17:11:33.414Z,91.10
2023-02-18T17:14:34.954Z,85.10
2023-02-18T17:17:36.553Z,88.20
2023-02-18T17:20:38.739Z,88.10
2023-02-18T17:23:41.256Z,96.80
2023-02-18T17:26:43.125Z,91.10
2023-02-18T17:29:44.641Z,97.50
2023-02-18T17:32:46.683Z,93.20
2023-02-18T17:35:48.373Z,98.30
2023-02-18T17:38:50.046Z,94.80
2023-02-18T17:41:52.204Z,96.10
2023-02-18T17:44:53.722Z,91.90
2023-02-18T17:47:59.516Z,95.40
2023-02-18T17:51:01.170Z,92.50
2023-02-18T17:54:03.430Z,95.60
2023-02-18T17:57:05.040Z,89.60
2023-02-18T18:00:07.487Z,106.00
2023-02-18T18:03:11.594Z,98.20
2023-02-18T18:06:17.680Z,98.30
2023-02-18T18:09:19.351Z,96.30
2023-02-18T18:12:20.882Z,96.30
2023-02-18T18:15:48.660Z,107.30
2023-02-18T18:18:50.243Z,107.20
2023-02-18T18:21:51.748Z,107.30
2023-02-18T18:24:53.441Z,96.30
2023-02-18T18:27:55.393Z,104.00
2023-02-18T18:30:57.771Z,108.80
2023-02-18T18:33:59.407Z,116.70
2023-02-18T18:37:00.984Z,115.90
2023-02-18T18:40:02.563Z,107.00
2023-02-18T18:43:04.552Z,112.10
2023-02-18T18:46:06.607Z,101.30
2023-02-18T18:49:08.208Z,105.90
2023-02-18T18:52:15.529Z,116.90
2023-02-18T18:55:25.023Z,105.90
2023-02-18T18:58:26.682Z,108.10
2023-02-18T19:01:29.280Z,112.20
2023-02-18T19:04:30.979Z,108.90
2023-02-18T19:07:32.518Z,115.50
2023-02-18T19:10:37.346Z,103.70
2023-02-18T19:13:39.381Z,109.00
2023-02-18T19:16:42.839Z,108.90
2023-02-18T19:19:44.552Z,113.10
2023-02-18T19:22:46.649Z,117.50
2023-02-18T19:25:48.289Z,105.20
2023-02-18T19:28:49.812Z,105.30
2023-02-18T19:31:51.440Z,100.60
2023-02-18T19:34:52.976Z,102.00
2023-02-18T19:37:54.786Z,100.60
2023-02-18T19:40:56.726Z,103.20
2023-02-18T19:43:58.361Z,100.10
2023-02-18T19:47:01.014Z,106.90
2023-02-18T19:50:03.419Z,118.40
2023-02-18T19:53:04.948Z,115.20
2023-02-18T19:56:07.538Z,111.20
2023-02-18T19:59:09.179Z,104.70
2023-02-18T20:02:19.628Z,104.10
2023-02-18T20:05:21.420Z,106.80
2023-02-18T20:08:22.946Z,114.80
2023-02-18T20:11:24.593Z,113.10
2023-02-18T20:14:27.188Z,109.00
2023-02-18T20:17:28.748Z,119.10
2023-02-18T20:20:30.387Z,119.10
2023-02-18T20:23:31.937Z,108.60
2023-02-18T20:26:33.588Z,117.90
2023-02-18T20:29:36.292Z,112.00
2023-02-18T20:32:38.411Z,109.80
2023-02-18T20:35:39.973Z,96.60
2023-02-18T20:38:41.783Z,108.80
2023-02-18T20:41:44.617Z,112.60
2023-02-18T20:44:46.621Z,116.10
2023-02-18T20:47:48.176Z,112.60
2023-02-18T20:50:49.748Z,112.80
2023-02-18T20:53:51.747Z,106.30
2023-02-18T20:56:53.312Z,105.10
2023-02-18T20:59:55.132Z,100.80
2023-02-18T21:02:56.700Z,115.20
2023-02-18T21:06:01.440Z,106.00
2023-02-18T21:09:03.363Z,107.80
2023-02-18T21:12:05.258Z,102.70
2023-02-18T21:15:07.088Z,105.70
2023-02-18T21:18:08.596Z,112.70
2023-02-18T21:21:11.163Z,49.10
2023-02-18T21:24:13.165Z,56.90
2023-02-18T21:27:14.812Z,58.40
2023-02-18T21:30:16.506Z,70.10
2023-02-18T21:33:18.084Z,60.80
2023-02-18T21:36:20.495Z,59.50
2023-02-18T21:39:22.084Z,77.90
2023-02-18T21:42:23.653Z,71.50
2023-02-18T21:45:27.504Z,67.40
2023-02-18T21:48:47.789Z,62.50
2023-02-18T21:52:08.289Z,56.50
2023-02-18T21:55:12.387Z,56.40
2023-02-18T21:58:13.951Z,63.60
2023-02-18T22:01:15.564Z,80.70
2023-02-18T22:04:17.218Z,67.30
2023-02-18T22:07:20.621Z,60.90
2023-02-18T22:10:22.250Z,77.30
2023-02-18T22:13:23.804Z,49.30
2023-02-18T22:16:28.197Z,63.30
2023-02-18T22:19:29.973Z,74.80
2023-02-18T22:22:32.244Z,66.00
2023-02-18T22:25:35.320Z,81.30
2023-02-18T22:28:37.378Z,70.90
2023-02-18T22:31:39.210Z,59.10
2023-02-18T22:34:40.847Z,66.60
2023-02-18T22:37:42.350Z,71.40
2023-02-18T22:40:43.867Z,79.40
2023-02-18T22:43:46.013Z,83.70
2023-02-18T22:46:47.601Z,84.80
2023-02-18T22:49:49.178Z,76.70
2023-02-18T22:52:50.713Z,90.90
2023-02-18T22:55:52.294Z,97.70
2023-02-18T22:58:55.666Z,97.90
2023-02-18T23:01:57.405Z,86.50
2023-02-18T23:04:58.917Z,79.30
2023-02-18T23:08:00.438Z,83.10
2023-02-18T23:11:03.320Z,89.10
2023-02-18T23:14:19.872Z,74.80
2023-02-18T23:17:24.392Z,74.80
2023-02-18T23:20:46.171Z,41.60
2023-02-18T23:23:53.070Z,51.20
2023-02-18T23:26:54.683Z,55.90
2023-02-18T23:29:56.558Z,53.90
2023-02-18T23:32:58.142Z,62.60
2023-02-18T23:36:08.674Z,69.90
2023-02-18T23:39:13.515Z,70.80
2023-02-18T23:42:24.363Z,73.60
2023-02-18T23:45:26.068Z,77.00
2023-02-18T23:48:27.585Z,89.10
2023-02-18T23:51:32.457Z,78.40
2023-02-18T23:54:34.286Z,98.60
2023-02-18T23:57:36.523Z,104.70
